createdAt,value
2023-08-06T00:02:04.432Z,24.84
2023-08-06T00:04:31.064Z,24.88
2023-08-06T00:06:57.741Z,24.93
2023-08-06T00:09:24.439Z,24.96
2023-08-06T00:11:51.398Z,24.98
2023-08-06T00:14:18.691Z,24.98
2023-08-06T00:16:46.371Z,24.95
2023-08-06T00:19:13.530Z,24.96
2023-08-06T00:21:40.238Z,24.98
2023-08-06T00:24:06.903Z,25.00
2023-08-06T00:26:33.551Z,25.02
2023-08-06T00:29:00.141Z,25.03
2023-08-06T00:31:27.077Z,25.04
2023-08-06T00:33:53.821Z,25.04
2023-08-06T00:36:20.398Z,25.02
2023-08-06T00:38:47.018Z,25.00
2023-08-06T00:41:14.971Z,24.98
2023-08-06T00:43:41.682Z,24.97
2023-08-06T00:46:08.456Z,24.93
2023-08-06T00:48:35.134Z,24.90
2023-08-06T00:51:02.821Z,24.85
2023-08-06T00:53:29.700Z,24.81
2023-08-06T00:55:56.477Z,24.77
2023-08-06T00:58:23.216Z,24.74
2023-08-06T01:00:49.920Z,24.72
2023-08-06T01:03:17.128Z,24.71
2023-08-06T01:05:43.953Z,24.71
2023-08-06T01:08:21.071Z,24.72
2023-08-06T01:11:15.507Z,24.71
2023-08-06T01:13:50.827Z,24.73
2023-08-06T01:16:21.951Z,24.73
2023-08-06T01:18:50.758Z,24.76
2023-08-06T01:21:18.413Z,24.79
2023-08-06T01:23:46.433Z,24.80
2023-08-06T01:26:40.058Z,24.81
2023-08-06T01:29:24.123Z,24.78
2023-08-06T01:31:54.419Z,24.80
2023-08-06T01:34:24.592Z,24.82
2023-08-06T01:36:52.381Z,24.83
2023-08-06T01:39:22.256Z,24.78
2023-08-06T01:41:52.421Z,24.68
2023-08-06T01:44:19.586Z,24.60
2023-08-06T01:46:46.366Z,24.56
2023-08-06T01:49:12.974Z,24.53
2023-08-06T01:51:39.546Z,24.51
2023-08-06T01:54:06.184Z,24.52
2023-08-06T01:56:32.806Z,24.53
2023-08-06T01:58:59.411Z,24.54
2023-08-06T02:01:26.041Z,24.55
2023-08-06T02:03:52.659Z,24.56
2023-08-06T02:06:19.270Z,24.55
2023-08-06T02:08:45.908Z,24.54
2023-08-06T02:11:12.659Z,24.55
2023-08-06T02:13:39.289Z,24.57
2023-08-06T02:19:17.775Z,24.55
2023-08-06T02:21:44.404Z,24.58
2023-08-06T02:24:11.153Z,24.60
2023-08-06T02:26:37.793Z,24.62
2023-08-06T02:29:04.408Z,24.63
2023-08-06T02:31:31.040Z,24.63
2023-08-06T02:33:59.704Z,24.64
2023-08-06T02:36:30.410Z,24.66
2023-08-06T02:38:58.977Z,24.67
2023-08-06T02:41:25.871Z,24.69
2023-08-06T02:43:53.996Z,24.70
2023-08-06T02:46:20.647Z,24.69
2023-08-06T02:48:47.382Z,24.67
2023-08-06T02:51:14.067Z,24.67
2023-08-06T02:53:41.268Z,24.68
2023-08-06T02:56:09.231Z,24.69
2023-08-06T02:59:07.950Z,24.69
2023-08-06T03:01:50.960Z,24.70
2023-08-06T03:04:22.792Z,24.75
2023-08-06T03:06:53.134Z,24.78
2023-08-06T03:09:20.663Z,24.80
2023-08-06T03:11:48.052Z,24.83
2023-08-06T03:14:15.126Z,24.86
2023-08-06T03:24:12.266Z,24.92
2023-08-06T03:26:39.648Z,24.93
2023-08-06T03:29:06.386Z,24.95
2023-08-06T03:31:34.286Z,24.97
2023-08-06T03:34:01.838Z,24.97
2023-08-06T03:36:29.616Z,24.98
2023-08-06T03:38:56.440Z,24.98
2023-08-06T03:41:23.185Z,24.99
2023-08-06T03:43:50.586Z,25.03
2023-08-06T03:46:22.112Z,25.02
2023-08-06T03:48:48.849Z,25.04
2023-08-06T03:51:15.429Z,25.04
2023-08-06T03:53:43.613Z,25.05
2023-08-06T03:56:10.446Z,25.08
2023-08-06T03:58:37.142Z,25.09
2023-08-06T04:01:04.601Z,25.08
2023-08-06T04:03:43.530Z,25.11
2023-08-06T04:06:10.272Z,25.09
2023-08-06T04:08:37.037Z,25.22
2023-08-06T04:11:04.739Z,25.29
2023-08-06T04:13:31.404Z,25.32
2023-08-06T04:16:03.276Z,25.36
2023-08-06T04:18:30.782Z,25.42
2023-08-06T04:20:58.551Z,25.48
2023-08-06T04:23:26.017Z,25.55
2023-08-06T04:25:58.405Z,25.60
2023-08-06T04:28:26.730Z,25.64
2023-08-06T04:30:54.924Z,25.70
2023-08-06T04:33:22.355Z,25.77
2023-08-06T04:35:55.225Z,25.86
2023-08-06T04:38:24.141Z,25.93
2023-08-06T04:40:50.773Z,26.01
2023-08-06T04:43:17.901Z,26.10
2023-08-06T04:45:48.994Z,26.18
2023-08-06T04:48:16.208Z,26.27
2023-08-06T04:50:47.136Z,26.37
2023-08-06T04:53:14.142Z,26.45
2023-08-06T04:55:41.133Z,26.59
2023-08-06T04:58:08.300Z,26.71
2023-08-06T05:00:35.069Z,26.79
2023-08-06T05:03:02.517Z,26.84
2023-08-06T05:05:30.037Z,26.93
2023-08-06T05:07:58.591Z,26.99
2023-08-06T05:10:27.153Z,27.08
2023-08-06T05:12:54.613Z,27.15
2023-08-06T05:15:21.412Z,27.32
2023-08-06T05:17:48.042Z,27.37
2023-08-06T05:20:14.724Z,27.41
2023-08-06T05:22:41.327Z,27.46
2023-08-06T05:25:08.284Z,27.17
2023-08-06T05:27:34.942Z,26.48
2023-08-06T05:30:01.483Z,26.00
2023-08-06T05:32:28.120Z,26.22
2023-08-06T05:34:54.833Z,26.56
2023-08-06T05:37:21.588Z,26.88
2023-08-06T05:39:48.251Z,26.96
2023-08-06T05:42:14.848Z,27.05
2023-08-06T05:44:41.719Z,27.11
2023-08-06T05:47:08.276Z,27.20
2023-08-06T05:49:34.852Z,26.94
2023-08-06T05:52:01.506Z,26.32
2023-08-06T05:54:28.078Z,25.94
2023-08-06T05:56:54.694Z,26.29
2023-08-06T05:59:21.276Z,26.70
2023-08-06T06:01:48.014Z,27.06
2023-08-06T06:04:14.766Z,27.29
2023-08-06T06:06:42.891Z,26.94
2023-08-06T06:09:09.608Z,26.45
2023-08-06T06:11:36.370Z,26.06
2023-08-06T06:14:03.199Z,26.03
2023-08-06T06:16:29.821Z,26.55
2023-08-06T06:18:58.297Z,27.03
2023-08-06T06:21:25.315Z,27.47
2023-08-06T06:23:52.584Z,27.15
2023-08-06T06:26:19.832Z,26.62
2023-08-06T06:28:46.435Z,26.27
2023-08-06T06:31:13.158Z,26.19
2023-08-06T06:33:39.814Z,26.74
2023-08-06T06:36:08.658Z,27.41
2023-08-06T06:38:35.635Z,27.62
2023-08-06T06:41:04.371Z,27.13
2023-08-06T06:43:31.487Z,26.57
2023-08-06T06:45:59.594Z,26.16
2023-08-06T06:48:30.473Z,26.18
2023-08-06T06:51:00.031Z,26.99
2023-08-06T06:53:29.910Z,27.35
2023-08-06T06:55:58.000Z,27.49
2023-08-06T06:58:24.607Z,27.96
2023-08-06T07:00:51.491Z,28.63
2023-08-06T07:03:19.307Z,29.39
2023-08-06T07:05:45.978Z,30.12
2023-08-06T07:08:12.689Z,30.87
2023-08-06T07:10:43.587Z,31.74
2023-08-06T07:13:11.176Z,32.25
2023-08-06T07:15:37.797Z,32.36
2023-08-06T07:18:04.399Z,32.33
2023-08-06T07:20:32.875Z,32.75
2023-08-06T07:23:00.178Z,33.50
2023-08-06T07:25:27.043Z,34.11
2023-08-06T07:27:53.728Z,34.84
2023-08-06T07:30:20.387Z,35.61
2023-08-06T07:32:47.031Z,36.20
2023-08-06T07:35:15.659Z,36.08
2023-08-06T07:37:42.625Z,36.13
2023-08-06T07:40:09.916Z,36.16
2023-08-06T07:42:37.217Z,36.34
2023-08-06T07:45:04.257Z,36.40
2023-08-06T07:47:30.971Z,36.02
2023-08-06T07:49:57.678Z,35.92
2023-08-06T07:52:24.325Z,35.78
2023-08-06T07:54:51.038Z,35.70
2023-08-06T07:57:17.878Z,35.61
2023-08-06T07:59:44.618Z,35.68
2023-08-06T08:02:11.275Z,35.58
2023-08-06T08:04:37.965Z,35.56
2023-08-06T08:07:04.846Z,35.70
2023-08-06T08:09:31.503Z,36.39
2023-08-06T08:12:01.094Z,37.36
2023-08-06T08:14:28.206Z,37.97
2023-08-06T08:16:54.882Z,38.50
2023-08-06T08:19:22.407Z,38.85
2023-08-06T08:21:49.126Z,39.21
2023-08-06T08:24:15.833Z,39.66
2023-08-06T08:26:42.451Z,39.56
2023-08-06T08:29:09.021Z,39.50
2023-08-06T08:31:40.471Z,38.88
2023-08-06T08:34:07.333Z,39.09
2023-08-06T08:36:33.997Z,39.81
2023-08-06T08:39:00.753Z,40.61
2023-08-06T08:41:30.919Z,40.73
2023-08-06T08:44:00.563Z,40.34
2023-08-06T08:46:31.912Z,39.75
2023-08-06T08:49:01.486Z,38.85
2023-08-06T08:51:29.341Z,38.21
2023-08-06T08:54:01.338Z,38.22
2023-08-06T08:56:27.990Z,38.17
2023-08-06T08:58:56.358Z,38.41
2023-08-06T09:01:23.837Z,38.44
2023-08-06T09:03:51.160Z,38.41
2023-08-06T09:06:19.798Z,38.81
2023-08-06T09:08:57.076Z,39.46
2023-08-06T09:11:24.605Z,39.65
2023-08-06T09:13:51.436Z,38.90
2023-08-06T09:16:18.131Z,37.72
2023-08-06T09:18:45.540Z,37.08
2023-08-06T09:21:17.427Z,36.15
2023-08-06T09:23:44.294Z,35.12
2023-08-06T09:26:16.420Z,34.50
2023-08-06T09:28:44.652Z,34.56
2023-08-06T09:31:11.923Z,34.76
2023-08-06T09:33:39.776Z,34.79
2023-08-06T09:36:11.951Z,34.22
2023-08-06T09:38:41.416Z,33.87
2023-08-06T09:41:09.464Z,33.90
2023-08-06T09:43:43.573Z,34.73
2023-08-06T09:46:15.508Z,36.09
2023-08-06T09:48:45.354Z,37.30
2023-08-06T09:51:13.922Z,37.64
2023-08-06T09:53:42.109Z,36.92
2023-08-06T09:56:10.826Z,36.31
2023-08-06T09:58:38.235Z,36.22
2023-08-06T10:01:05.384Z,36.28
2023-08-06T10:03:35.142Z,35.94
2023-08-06T10:06:03.671Z,35.29
2023-08-06T10:08:30.712Z,34.92
2023-08-06T10:10:58.766Z,34.84
2023-08-06T10:13:26.246Z,35.37
2023-08-06T10:15:56.025Z,36.31
2023-08-06T10:18:23.956Z,37.51
2023-08-06T10:20:50.603Z,38.66
2023-08-06T10:23:18.427Z,39.47
2023-08-06T10:25:54.480Z,40.10
2023-08-06T10:28:21.139Z,40.37
2023-08-06T10:30:48.973Z,39.88
2023-08-06T10:33:17.470Z,39.18
2023-08-06T10:35:49.486Z,39.17
2023-08-06T10:38:27.366Z,39.21
2023-08-06T10:40:54.043Z,39.67
2023-08-06T10:43:33.089Z,40.48
2023-08-06T10:46:00.807Z,41.01
2023-08-06T10:48:40.591Z,40.27
2023-08-06T10:51:15.151Z,39.59
2023-08-06T10:53:47.630Z,39.64
2023-08-06T10:56:28.441Z,39.31
2023-08-06T10:58:59.643Z,39.28
2023-08-06T11:01:30.383Z,39.43
2023-08-06T11:03:58.000Z,39.23
2023-08-06T11:06:26.002Z,38.22
2023-08-06T11:08:56.204Z,37.21
2023-08-06T11:11:24.550Z,37.28
2023-08-06T11:13:52.648Z,37.60
2023-08-06T11:16:22.868Z,38.39
2023-08-06T11:18:49.871Z,38.87
2023-08-06T11:21:20.555Z,39.66
2023-08-06T11:23:47.293Z,40.07
2023-08-06T11:26:16.351Z,40.28
2023-08-06T11:28:43.711Z,40.11
2023-08-06T11:31:20.338Z,40.19
2023-08-06T11:33:47.225Z,39.62
2023-08-06T11:36:13.907Z,39.27
2023-08-06T11:38:40.648Z,39.04
2023-08-06T11:41:08.166Z,39.09
2023-08-06T11:43:34.880Z,39.58
2023-08-06T11:46:01.579Z,39.82
2023-08-06T11:48:28.293Z,39.72
2023-08-06T11:50:58.923Z,39.75
2023-08-06T11:53:28.769Z,40.03
2023-08-06T11:55:55.452Z,40.29
2023-08-06T11:58:22.114Z,40.38
2023-08-06T12:00:49.455Z,40.48
2023-08-06T12:03:20.222Z,40.68
2023-08-06T12:05:48.337Z,40.89
2023-08-06T12:08:15.156Z,40.93
2023-08-06T12:10:41.908Z,41.00
2023-08-06T12:13:08.518Z,40.62
2023-08-06T12:15:35.132Z,39.43
2023-08-06T12:18:02.073Z,38.40
2023-08-06T12:20:29.625Z,37.74
2023-08-06T12:22:56.233Z,37.00
2023-08-06T12:25:24.654Z,36.28
2023-08-06T12:27:51.407Z,35.56
2023-08-06T12:30:18.115Z,34.82
2023-08-06T12:32:44.738Z,33.99
2023-08-06T12:35:11.453Z,33.12
2023-08-06T12:37:39.907Z,32.45
2023-08-06T12:40:28.603Z,32.02
2023-08-06T12:42:54.482Z,31.75
2023-08-06T12:45:22.613Z,31.47
2023-08-06T12:47:50.983Z,31.20
2023-08-06T12:50:18.550Z,31.02
2023-08-06T12:52:45.758Z,30.96
2023-08-06T12:55:12.588Z,30.94
2023-08-06T12:57:51.898Z,30.89
2023-08-06T13:00:24.003Z,30.93
2023-08-06T13:02:50.764Z,31.04
2023-08-06T13:05:17.563Z,31.14
2023-08-06T13:07:44.226Z,31.15
2023-08-06T13:10:10.906Z,31.03
2023-08-06T13:12:37.514Z,30.88
2023-08-06T13:15:04.491Z,30.70
2023-08-06T13:17:31.184Z,30.64
2023-08-06T13:19:58.795Z,30.61
2023-08-06T13:22:25.459Z,30.59
2023-08-06T13:24:52.093Z,30.63
2023-08-06T13:27:18.752Z,30.88
2023-08-06T13:29:45.362Z,31.35
2023-08-06T13:32:11.957Z,31.87
2023-08-06T13:34:38.582Z,32.20
2023-08-06T13:37:05.306Z,32.29
2023-08-06T13:39:31.950Z,32.19
2023-08-06T13:41:58.565Z,31.88
2023-08-06T13:44:25.277Z,31.48
2023-08-06T13:46:51.898Z,31.29
2023-08-06T13:49:18.518Z,31.19
2023-08-06T13:51:45.151Z,31.27
2023-08-06T13:54:11.794Z,31.44
2023-08-06T13:56:39.001Z,31.58
2023-08-06T13:59:05.851Z,31.62
2023-08-06T14:01:43.619Z,31.64
2023-08-06T14:04:16.363Z,31.53
2023-08-06T14:06:43.266Z,31.34
2023-08-06T14:09:09.979Z,31.03
2023-08-06T14:11:36.640Z,30.80
2023-08-06T14:14:04.479Z,30.61
2023-08-06T14:16:31.411Z,30.55
2023-08-06T14:18:58.058Z,30.54
2023-08-06T14:21:24.654Z,30.56
2023-08-06T14:23:51.459Z,30.63
2023-08-06T14:26:18.388Z,30.70
2023-08-06T14:28:45.182Z,30.61
2023-08-06T14:31:12.764Z,30.39
2023-08-06T14:33:39.519Z,30.11
2023-08-06T14:36:06.711Z,29.83
2023-08-06T14:38:36.770Z,29.55
2023-08-06T14:41:07.777Z,29.20
2023-08-06T14:43:34.600Z,28.86
2023-08-06T14:46:01.221Z,28.54
2023-08-06T14:48:28.032Z,28.29
2023-08-06T14:50:55.912Z,28.14
2023-08-06T14:53:22.710Z,28.01
2023-08-06T14:55:49.568Z,27.91
2023-08-06T14:58:16.192Z,27.81
2023-08-06T15:00:44.000Z,27.79
2023-08-06T15:03:10.859Z,27.77
2023-08-06T15:05:37.447Z,27.71
2023-08-06T15:08:04.390Z,27.66
2023-08-06T15:10:31.027Z,27.61
2023-08-06T15:13:00.604Z,27.54
2023-08-06T15:15:27.778Z,27.49
2023-08-06T15:17:54.513Z,27.42
2023-08-06T15:20:21.144Z,27.34
2023-08-06T15:22:47.767Z,27.31
2023-08-06T15:25:14.461Z,27.31
2023-08-06T15:27:41.257Z,27.31
2023-08-06T15:30:08.799Z,27.29
2023-08-06T15:32:35.628Z,27.24
2023-08-06T15:35:04.809Z,27.19
2023-08-06T15:37:32.139Z,27.14
2023-08-06T15:39:59.311Z,27.10
2023-08-06T15:42:26.041Z,27.07
2023-08-06T15:44:52.729Z,27.04
2023-08-06T15:47:19.449Z,26.94
2023-08-06T15:49:46.175Z,26.82
2023-08-06T15:52:12.858Z,26.72
2023-08-06T15:54:39.609Z,26.61
2023-08-06T15:57:06.393Z,26.49
2023-08-06T15:59:34.328Z,26.40
2023-08-06T16:02:03.782Z,26.32
2023-08-06T16:04:34.846Z,26.26
2023-08-06T16:07:01.807Z,26.22
2023-08-06T16:09:28.477Z,26.18
2023-08-06T16:11:55.772Z,26.14
2023-08-06T16:14:22.662Z,26.12
2023-08-06T16:16:49.420Z,26.08
2023-08-06T16:19:16.323Z,26.03
2023-08-06T16:21:43.000Z,25.96
2023-08-06T16:24:10.477Z,25.90
2023-08-06T16:26:37.691Z,25.85
2023-08-06T16:29:04.820Z,25.82
2023-08-06T16:31:31.647Z,25.80
2023-08-06T16:33:58.445Z,25.80
2023-08-06T16:36:25.919Z,25.79
2023-08-06T16:38:52.652Z,25.78
2023-08-06T16:41:19.431Z,25.78
2023-08-06T16:43:46.695Z,25.80
2023-08-06T16:46:13.475Z,25.83
2023-08-06T16:48:40.896Z,25.86
2023-08-06T16:51:07.626Z,25.88
2023-08-06T16:53:34.283Z,25.92
2023-08-06T16:56:00.960Z,25.92
2023-08-06T16:58:27.951Z,25.90
2023-08-06T17:00:56.768Z,25.96
2023-08-06T17:03:23.680Z,26.57
2023-08-06T17:05:50.432Z,27.28
2023-08-06T17:08:17.153Z,27.66
2023-08-06T17:10:43.907Z,27.39
2023-08-06T17:13:20.142Z,27.00
2023-08-06T17:15:50.666Z,26.70
2023-08-06T17:18:18.223Z,26.47
2023-08-06T17:20:46.730Z,26.33
2023-08-06T17:23:13.864Z,26.36
2023-08-06T17:25:45.104Z,26.98
2023-08-06T17:28:12.508Z,27.57
2023-08-06T17:30:43.581Z,27.86
2023-08-06T17:33:12.544Z,27.53
2023-08-06T17:35:44.522Z,27.08
2023-08-06T17:38:12.225Z,26.68
2023-08-06T17:40:39.155Z,26.36
2023-08-06T17:43:05.921Z,26.30
2023-08-06T17:45:32.942Z,26.65
2023-08-06T17:47:59.668Z,26.37
2023-08-06T17:50:26.347Z,25.98
2023-08-06T17:52:53.614Z,25.69
2023-08-06T17:55:20.286Z,25.47
2023-08-06T17:57:46.950Z,25.27
2023-08-06T18:00:13.796Z,25.09
2023-08-06T18:02:44.571Z,25.09
2023-08-06T18:05:15.946Z,25.85
2023-08-06T18:07:45.777Z,26.41
2023-08-06T18:10:13.181Z,26.30
2023-08-06T18:12:43.470Z,25.54
2023-08-06T18:15:12.553Z,25.05
2023-08-06T18:17:42.766Z,25.38
2023-08-06T18:20:10.504Z,25.81
2023-08-06T18:22:39.497Z,25.87
2023-08-06T18:25:08.858Z,25.14
2023-08-06T18:27:35.870Z,24.37
2023-08-06T18:30:03.390Z,24.47
2023-08-06T18:32:30.102Z,24.92
2023-08-06T18:34:56.758Z,25.07
2023-08-06T18:37:23.320Z,25.15
2023-08-06T18:39:50.825Z,25.25
2023-08-06T18:42:17.963Z,25.19
2023-08-06T18:44:44.651Z,25.12
2023-08-06T18:47:11.302Z,25.07
2023-08-06T18:49:37.928Z,25.04
2023-08-06T18:52:06.532Z,24.93
2023-08-06T18:54:33.298Z,24.85
2023-08-06T18:56:59.957Z,24.81
2023-08-06T18:59:27.092Z,24.90
2023-08-06T19:01:53.893Z,24.93
2023-08-06T19:04:20.775Z,24.93
2023-08-06T19:06:47.752Z,24.11
2023-08-06T19:09:16.012Z,23.21
2023-08-06T19:11:42.773Z,23.11
2023-08-06T19:14:09.497Z,23.47
2023-08-06T19:16:37.082Z,23.63
2023-08-06T19:19:04.121Z,23.16
2023-08-06T19:21:30.818Z,22.34
2023-08-06T19:23:58.550Z,22.42
2023-08-06T19:26:27.234Z,22.69
2023-08-06T19:28:53.938Z,22.83
2023-08-06T19:31:20.640Z,22.97
2023-08-06T19:33:47.424Z,23.05
2023-08-06T19:36:15.043Z,23.08
2023-08-06T19:38:41.722Z,23.02
2023-08-06T19:41:12.501Z,23.15
2023-08-06T19:43:41.638Z,22.94
2023-08-06T19:46:08.408Z,21.99
2023-08-06T19:48:35.061Z,21.35
2023-08-06T19:51:02.181Z,21.58
2023-08-06T19:53:32.561Z,21.97
2023-08-06T19:56:01.011Z,22.35
2023-08-06T19:58:30.182Z,22.54
2023-08-06T20:00:59.677Z,22.47
2023-08-06T20:03:32.791Z,21.62
2023-08-06T20:06:03.643Z,21.22
2023-08-06T20:08:32.834Z,21.57
2023-08-06T20:11:00.798Z,22.08
2023-08-06T20:13:27.548Z,22.31
2023-08-06T20:15:55.447Z,22.35
2023-08-06T20:18:27.563Z,22.46
2023-08-06T20:20:55.516Z,21.95
2023-08-06T20:23:23.539Z,21.12
2023-08-06T20:25:51.476Z,21.18
2023-08-06T20:28:18.165Z,21.40
2023-08-06T20:30:44.982Z,21.64
2023-08-06T20:33:12.256Z,21.81
2023-08-06T20:35:41.151Z,21.97
2023-08-06T20:38:09.217Z,21.99
2023-08-06T20:40:37.010Z,22.08
2023-08-06T20:43:03.980Z,22.17
2023-08-06T20:45:30.839Z,22.07
2023-08-06T20:47:57.590Z,21.31
2023-08-06T20:50:25.548Z,20.94
2023-08-06T20:52:52.745Z,21.21
2023-08-06T20:55:20.386Z,21.47
2023-08-06T20:57:47.218Z,21.62
2023-08-06T21:00:14.453Z,21.79
2023-08-06T21:02:41.217Z,21.92
2023-08-06T21:05:08.038Z,22.04
2023-08-06T21:07:34.834Z,22.04
2023-08-06T21:10:01.702Z,22.04
2023-08-06T21:12:28.443Z,22.18
2023-08-06T21:14:55.441Z,22.20
2023-08-06T21:17:22.344Z,22.21
2023-08-06T21:19:52.268Z,22.19
2023-08-06T21:22:18.923Z,22.21
2023-08-06T21:24:45.662Z,22.23
2023-08-06T21:27:12.399Z,22.21
2023-08-06T21:29:39.477Z,22.25
2023-08-06T21:32:07.023Z,22.32
2023-08-06T21:34:34.276Z,22.29
2023-08-06T21:37:01.017Z,21.61
2023-08-06T21:39:27.681Z,20.86
2023-08-06T21:41:54.632Z,21.02
2023-08-06T21:44:21.523Z,21.38
2023-08-06T21:46:48.197Z,21.58
2023-08-06T21:49:14.982Z,21.72
2023-08-06T21:51:41.790Z,21.87
2023-08-06T21:54:12.106Z,21.88
2023-08-06T21:56:39.368Z,21.77
2023-08-06T21:59:09.153Z,21.83
2023-08-06T22:01:35.794Z,21.94
2023-08-06T22:04:02.446Z,21.94
2023-08-06T22:06:29.113Z,21.18
2023-08-06T22:08:58.432Z,20.47
2023-08-06T22:11:25.133Z,20.64
2023-08-06T22:13:51.861Z,21.08
2023-08-06T22:16:18.657Z,21.28
2023-08-06T22:18:45.828Z,21.41
2023-08-06T22:21:12.551Z,21.47
2023-08-06T22:23:39.285Z,21.66
2023-08-06T22:26:05.993Z,21.65
2023-08-06T22:28:32.705Z,21.67
2023-08-06T22:30:59.472Z,21.73
2023-08-06T22:33:30.706Z,21.83
2023-08-06T22:35:57.863Z,21.79
2023-08-06T22:38:27.008Z,21.74
2023-08-06T22:40:53.768Z,21.78
2023-08-06T22:43:20.442Z,21.84
2023-08-06T22:45:47.141Z,21.80
2023-08-06T22:48:13.834Z,21.83
2023-08-06T22:50:40.513Z,21.73
2023-08-06T22:53:08.305Z,21.64
2023-08-06T22:58:08.739Z,21.63
2023-08-06T23:00:35.437Z,21.67
2023-08-06T23:03:09.742Z,21.59
2023-08-06T23:05:38.509Z,21.50
2023-08-06T23:08:05.616Z,21.43
2023-08-06T23:10:32.580Z,21.44
2023-08-06T23:12:59.215Z,21.27
2023-08-06T23:15:25.897Z,21.03
2023-08-06T23:17:52.633Z,20.92
2023-08-06T23:20:19.568Z,20.81
2023-08-06T23:22:46.192Z,20.73
2023-08-06T23:25:12.812Z,20.69
2023-08-06T23:27:39.425Z,20.74
2023-08-06T23:30:07.346Z,20.71
2023-08-06T23:32:35.057Z,20.63
2023-08-06T23:35:02.222Z,20.64
2023-08-06T23:37:28.878Z,20.76
2023-08-06T23:39:56.605Z,20.62
2023-08-06T23:42:23.985Z,20.67
2023-08-06T23:44:51.248Z,20.67
2023-08-06T23:47:17.855Z,20.55
2023-08-06T23:49:44.849Z,20.54
2023-08-06T23:52:11.435Z,20.51
2023-08-06T23:54:38.039Z,20.53
2023-08-06T23:57:04.987Z,20.53
2023-08-06T23:59:31.592Z,20.55
